CheckWX is a tool to help pilots better visualize weather data.  It is not intended as a substitute for an official pre-flight weather briefing.

16:57:09 UTC

KSSI TAF
McKinnon St Simons Island Airport
Brunswick, Georgia, USA
KSSI 181556Z 1816/1912 22006KT P6SM SCT020 BKN120 FM181730 17010KT P6SM VCTS BKN030CB TEMPO 1818/1822 VRB15G25KT 3SM TSRA BKN020CB FM190000 23006KT P6SM VCSH SCT025 BKN100 BKN200

Jun-18@
16:00 UTC

Jun-18 @ 16:00 UTC

Jun-18@
17:30 UTC

Jun-18 @ 17:30 UTC

KSSI 181556Z 1816/1912 22006KT P6SM SCT020 BKN120
Wind
  • 220° at 6 KTS
Cloud Levels
  • Scattered at 2,000' AGL
  • Broken at 12,000' AGL

Jun-18@
17:30 UTC

Jun-18 @ 17:30 UTC

Jun-19@
00:00 UTC

Jun-19 @ 00:00 UTC

FM181730 17010KT P6SM VCTS BKN030CB

From

From Standard forecast or significant change

Wind
  • 170° at 10 KTS
Conditions
Area Thunderstorm
Cloud Levels
  • Broken at 3,000' AGL

Jun-18@
18:00 UTC

Jun-18 @ 18:00 UTC

Jun-18@
22:00 UTC

Jun-18 @ 22:00 UTC

TEMPO 1818/1822 VRB15G25KT 3SM TSRA BKN020CB

Temporary

Temporary Changes expected for less than half the time period

Wind
  • Variable at 15 KTS
  • {Gusting to 25 KTS
Conditions
Thunderstorm, Rain
Cloud Levels
  • Broken at 2,000' AGL

Jun-19@
00:00 UTC

Jun-19 @ 00:00 UTC

Jun-19@
12:00 UTC

Jun-19 @ 12:00 UTC

FM190000 23006KT P6SM VCSH SCT025 BKN100 BKN200

From

From Standard forecast or significant change

Wind
  • 230° at 6 KTS
Cloud Levels
  • Scattered at 2,500' AGL
  • Broken at 10,000' AGL
  • Broken at 20,000' AGL